Maersk Bali — 9V7499 — position and weather

sailwx.info

Track history (hours):
 
Tides and Currents Weather Stations Pressure Air Temp Water Temp Dewpoint Dewpoint Depression Visibility Wind Speed Wind Dir Waves Ship Positions

Maersk Bali

Last reported at 2015-Jul-29 08:05 UTC. Time now 2015-Sep-02 17:01 UTC.
Position N 35°29' W 008°23'.
Warning: this ship's position is 35 days out of date.

Length 223 m; draft 9.4 m.

Type: Cargo ship. MMSI: 563102000.

Date/timePositionNaut miles runAvg speedWind from/ knotsBaromVisibWave heightAir tempDewpointWater temp
2015-Jul-29 08:05N 35°29' W 008°23'5211.0
2015-Jul-29 03:18N 35°45' W 007°21'1910.7
2015-Jul-29 01:33N 35°51' W 006°59'1110.9
2015-Jul-29 00:33N 35°53' W 006°46'1111.3
2015-Jul-28 23:33N 35°57' W 006°33'59 1.9
2015-Jul-27 16:33N 36°04' W 005°21'17411.6
2015-Jul-27 01:31N 36°29' W 001°47'2311.8
2015-Jul-26 23:33N 36°33' W 001°19'1211.9
2015-Jul-26 22:31N 36°35' W 001°04'1111.7
2015-Jul-26 21:33N 36°37' W 000°50'1211.8
2015-Jul-26 20:33N 36°39' W 000°35'1211.9
2015-Jul-26 19:33N 36°42' W 000°21'1212.0
2015-Jul-26 18:33N 36°44' W 000°06'1212.3
2015-Jul-26 17:33N 36°46' E 000°09'1212.2
2015-Jul-26 16:33N 36°48' E 000°24'1212.3
2015-Jul-26 15:33N 36°50' E 000°39'1211.9
2015-Jul-26 14:32N 36°53' E 000°54'1211.9
2015-Jul-26 13:33N 36°55' E 001°09'36512.2
2015-Jul-25 07:33N 37°36' E 008°44'12911.3
2015-Jul-24 20:08N 37°21' E 011°25'4311.6
2015-Jul-24 16:27N 37°00' E 012°12'1111.3
2015-Jul-24 15:27N 36°58' E 012°25'1010.9
2015-Jul-24 14:33N 36°54' E 012°37'1111.1
2015-Jul-24 13:34N 36°52' E 012°50'1111.0
2015-Jul-24 12:33N 36°49' E 013°03'1111.0
2015-Jul-24 11:33N 36°45' E 013°16'1111.3
2015-Jul-24 10:33N 36°42' E 013°30'1211.5
2015-Jul-24 09:33N 36°38' E 013°43'1211.6
2015-Jul-24 08:32N 36°35' E 013°58'1211.9
2015-Jul-24 07:33N 36°32' E 014°12'1212.0
2015-Jul-24 06:34N 36°28' E 014°26'1212.1
2015-Jul-24 05:33N 36°25' E 014°40'1612.3
2015-Jul-24 04:13N 36°20' E 014°60'40011.8
2015-Jul-22 18:12N 36°26' E 023°16'1112.4
2015-Jul-22 17:20N 36°36' E 023°22'8512.2
2015-Jul-22 10:23N 37°46' E 024°22'  
2015-Jul-20 04:31N 40°45' E 028°49'1010.7
2015-Jul-20 03:33N 40°44' E 029°03'1110.8
2015-Jul-20 02:33N 40°44' E 029°17'1210.9
2015-Jul-20 01:25N 40°45' E 029°33'6 0.4
2015-Jul-19 10:07N 40°46' E 029°42'8 9.2
2015-Jul-19 09:13N 40°45' E 029°31'710.1
2015-Jul-19 08:31N 40°44' E 029°21'  
Track history (hours):
 
Tides and Currents Weather Stations Pressure Air Temp Water Temp Dewpoint Dewpoint Depression Visibility Wind Speed Wind Dir Waves Ship Positions

Maersk Bali

Last reported at 2015-Jul-29 08:05 UTC. Time now 2015-Sep-02 17:01 UTC.
Position N 35°29' W 008°23'.
Warning: this ship's position is 35 days out of date.

Length 223 m; draft 9.4 m.

Type: Cargo ship. MMSI: 563102000.

Date/timePositionNaut miles runAvg speedWind from/ knotsBaromVisibWave heightAir tempDewpointWater temp
2015-Jul-29 08:05N 35°29' W 008°23'5211.0
2015-Jul-29 03:18N 35°45' W 007°21'1910.7
2015-Jul-29 01:33N 35°51' W 006°59'1110.9
2015-Jul-29 00:33N 35°53' W 006°46'1111.3
2015-Jul-28 23:33N 35°57' W 006°33'59 1.9
2015-Jul-27 16:33N 36°04' W 005°21'17411.6
2015-Jul-27 01:31N 36°29' W 001°47'2311.8
2015-Jul-26 23:33N 36°33' W 001°19'1211.9
2015-Jul-26 22:31N 36°35' W 001°04'1111.7
2015-Jul-26 21:33N 36°37' W 000°50'1211.8
2015-Jul-26 20:33N 36°39' W 000°35'1211.9
2015-Jul-26 19:33N 36°42' W 000°21'1212.0
2015-Jul-26 18:33N 36°44' W 000°06'1212.3
2015-Jul-26 17:33N 36°46' E 000°09'1212.2
2015-Jul-26 16:33N 36°48' E 000°24'1212.3
2015-Jul-26 15:33N 36°50' E 000°39'1211.9
2015-Jul-26 14:32N 36°53' E 000°54'1211.9
2015-Jul-26 13:33N 36°55' E 001°09'36512.2
2015-Jul-25 07:33N 37°36' E 008°44'12911.3
2015-Jul-24 20:08N 37°21' E 011°25'4311.6
2015-Jul-24 16:27N 37°00' E 012°12'1111.3
2015-Jul-24 15:27N 36°58' E 012°25'1010.9
2015-Jul-24 14:33N 36°54' E 012°37'1111.1
2015-Jul-24 13:34N 36°52' E 012°50'1111.0
2015-Jul-24 12:33N 36°49' E 013°03'1111.0
2015-Jul-24 11:33N 36°45' E 013°16'1111.3
2015-Jul-24 10:33N 36°42' E 013°30'1211.5
2015-Jul-24 09:33N 36°38' E 013°43'1211.6
2015-Jul-24 08:32N 36°35' E 013°58'1211.9
2015-Jul-24 07:33N 36°32' E 014°12'1212.0
2015-Jul-24 06:34N 36°28' E 014°26'1212.1
2015-Jul-24 05:33N 36°25' E 014°40'1612.3
2015-Jul-24 04:13N 36°20' E 014°60'40011.8
2015-Jul-22 18:12N 36°26' E 023°16'1112.4
2015-Jul-22 17:20N 36°36' E 023°22'8512.2
2015-Jul-22 10:23N 37°46' E 024°22'  
2015-Jul-20 04:31N 40°45' E 028°49'1010.7
2015-Jul-20 03:33N 40°44' E 029°03'1110.8
2015-Jul-20 02:33N 40°44' E 029°17'1210.9
2015-Jul-20 01:25N 40°45' E 029°33'6 0.4
2015-Jul-19 10:07N 40°46' E 029°42'8 9.2
2015-Jul-19 09:13N 40°45' E 029°31'710.1
2015-Jul-19 08:31N 40°44' E 029°21'  

Dump ship's entire track history